Terminal Aerodrome Forecast
Issued by NWS

Home | Current Version | Previous Version | Text Only | Print | Product List | Glossary On
Versions: 1 2 3 4 5 6 7 8 9 10 11 12 13 14 15 16 17 18 19 20 21 22 23 24 25 26 27 28 29 30 31
000
FTUS43 KDLH 132042 AAB
TAFHYR
TAF AMD
KHYR 132042Z 1321/1418 03007KT 3SM -SN OVC015
     FM132300 VRB03KT P6SM VCSH OVC025
     FM140600 VRB03KT P6SM VCSH BKN015 OVC025
     FM141400 25004KT 6SM -SN OVC012=

USA.gov is the U.S. government's official web portal to all federal, state and local government web resources and services.